createdAt,value
2019-02-03T00:00:31.531Z,11.2
2019-02-03T00:10:34.770Z,11.7
2019-02-03T00:20:36.728Z,12.1
2019-02-03T00:30:36.921Z,16.1
2019-02-03T00:40:58.338Z,12.1
2019-02-03T00:51:01.275Z,8.1
2019-02-03T01:01:03.505Z,7.1
2019-02-03T01:11:05.089Z,9.9
2019-02-03T01:21:07.884Z,5.5
2019-02-03T01:31:12.176Z,4.1
2019-02-03T01:41:14.457Z,3.7
2019-02-03T01:51:17.011Z,6
2019-02-03T02:01:18.791Z,3.4
2019-02-03T02:11:26.036Z,3
2019-02-03T02:21:28.194Z,3.2
2019-02-03T02:31:28.132Z,4.3
2019-02-03T02:41:44.692Z,5.4
2019-02-03T02:51:46.164Z,5.5
2019-02-03T03:01:48.874Z,3.6
2019-02-03T03:11:51.496Z,3.8
2019-02-03T03:21:51.556Z,4.5
2019-02-03T03:31:52.849Z,3
2019-02-03T03:42:04.307Z,3.7
2019-02-03T03:52:04.485Z,3.7
2019-02-03T04:02:04.312Z,2.2
2019-02-03T04:12:18.578Z,3
2019-02-03T04:22:19.554Z,2.7
2019-02-03T04:32:20.911Z,3.2
2019-02-03T04:42:29.624Z,1.7
2019-02-03T04:52:31.441Z,1.7
2019-02-03T05:02:34.651Z,2.7
2019-02-03T05:12:42.839Z,3.7
2019-02-03T05:22:43.125Z,2.9
2019-02-03T05:32:42.270Z,4.8
2019-02-03T05:42:56.858Z,3.1
2019-02-03T05:52:57.322Z,5.8
2019-02-03T06:02:57.610Z,3.3
2019-02-03T06:13:09.875Z,3.7
2019-02-03T06:23:11.487Z,4.4
2019-02-03T06:33:12.477Z,5.2
2019-02-03T06:43:19.944Z,5.5
2019-02-03T06:53:21.618Z,7.4
2019-02-03T07:03:24.040Z,9.2
2019-02-03T07:13:33.411Z,8
2019-02-03T07:23:35.012Z,6.1
2019-02-03T07:33:36.290Z,6.1
2019-02-03T07:43:43.862Z,5.7
2019-02-03T07:53:47.205Z,9.2
2019-02-03T08:03:49.652Z,4.9
2019-02-03T08:14:00.652Z,4.3
2019-02-03T08:24:00.599Z,3.8
2019-02-03T08:34:00.741Z,4.3
2019-02-03T08:44:09.303Z,5.9
2019-02-03T08:54:13.911Z,5.2
2019-02-03T09:04:32.807Z,5.2
2019-02-03T09:14:34.277Z,5.7
2019-02-03T09:24:34.502Z,4.7
2019-02-03T09:34:35.749Z,4.4
2019-02-03T09:44:41.170Z,4.3
2019-02-03T09:54:43.111Z,3.3
2019-02-03T10:04:46.374Z,5.8
2019-02-03T10:14:55.107Z,7.4
2019-02-03T10:24:58.845Z,18.6
2019-02-03T10:35:02.494Z,20.8
2019-02-03T10:45:06.435Z,43.7
2019-02-03T10:55:09.035Z,15.2
2019-02-03T11:05:24.451Z,4.8
2019-02-03T11:15:27.200Z,7
2019-02-03T11:25:36.787Z,4.7
2019-02-03T11:35:41.516Z,10.5
2019-02-03T11:45:43.236Z,14.3
2019-02-03T11:55:45.029Z,7
2019-02-03T12:05:50.518Z,7.7
2019-02-03T12:15:53.165Z,9.3
2019-02-03T12:25:55.773Z,8.1
2019-02-03T12:36:01.678Z,6.7
2019-02-03T12:46:04.310Z,7.9
2019-02-03T12:56:06.322Z,9.6
2019-02-03T13:06:09.850Z,15.6
2019-02-03T13:16:12.050Z,6.5
2019-02-03T13:26:16.503Z,8.6
2019-02-03T13:36:24.756Z,9.1
2019-02-03T13:46:37.210Z,7.6
2019-02-03T13:56:40.147Z,9.9
2019-02-03T14:06:41.324Z,11.1
2019-02-03T14:16:44.869Z,13.5
2019-02-03T14:26:44.013Z,21.6
2019-02-03T14:36:44.712Z,23.1
2019-02-03T14:46:46.138Z,12
2019-02-03T14:56:56.039Z,13.3
2019-02-03T15:06:56.791Z,27.3
2019-02-03T15:17:11.228Z,16
2019-02-03T15:27:11.300Z,13.8
2019-02-03T15:37:13.831Z,16.2
2019-02-03T15:47:14.398Z,13.7
2019-02-03T15:57:14.766Z,12.7
2019-02-03T16:07:15.025Z,13.5
2019-02-03T16:17:17.181Z,13.9
2019-02-03T16:27:18.864Z,16.5
2019-02-03T16:37:22.807Z,13.1
2019-02-03T16:47:23.470Z,17.3
2019-02-03T16:57:26.447Z,14
2019-02-03T17:07:28.648Z,16.7
2019-02-03T17:17:32.378Z,14.2
2019-02-03T17:27:34.793Z,12.7
2019-02-03T17:37:38.404Z,13.7
2019-02-03T17:47:52.028Z,21
2019-02-03T17:57:51.554Z,17.3
2019-02-03T18:07:51.294Z,20.5
2019-02-03T18:17:56.258Z,13.1
2019-02-03T18:28:05.433Z,18.5
2019-02-03T18:38:06.810Z,12.7
2019-02-03T18:48:09.275Z,12.6
2019-02-03T18:58:11.716Z,12.8
2019-02-03T19:08:17.216Z,15.1
2019-02-03T19:18:24.734Z,11.7
2019-02-03T19:28:28.675Z,12.6
2019-02-03T19:38:38.443Z,11.2
2019-02-03T19:48:42.072Z,14.1
2019-02-03T19:58:44.654Z,14.5
2019-02-03T20:08:46.596Z,11.4
2019-02-03T20:18:47.487Z,17.1
2019-02-03T20:28:52.728Z,15.8
2019-02-03T20:39:14.562Z,11.3
2019-02-03T20:49:22.196Z,9.1
2019-02-03T20:59:24.298Z,11.2
2019-02-03T21:09:26.118Z,12.3
2019-02-03T21:19:29.806Z,14
2019-02-03T21:29:30.931Z,10
2019-02-03T21:39:34.602Z,10.1
2019-02-03T21:49:36.930Z,9.6
2019-02-03T21:59:41.122Z,8.4
2019-02-03T22:09:43.874Z,14.9
2019-02-03T22:19:48.158Z,9.3
2019-02-03T22:29:51.091Z,11.8
2019-02-03T22:39:54.051Z,10.5
2019-02-03T22:49:57.791Z,9.8
2019-02-03T23:00:00.615Z,15.6
2019-02-03T23:10:02.369Z,14.3
2019-02-03T23:20:02.587Z,9.9
2019-02-03T23:30:08.353Z,10.1
2019-02-03T23:40:11.987Z,10.4
2019-02-03T23:50:18.341Z,11.5
